Time;durP1;ratioP1;P1;durP2;ratioP2;P2;SDS_P1;SDS_P2;PMS_P1;PMS_P2;Temp;Humidity;BMP_temperature;BMP_pressure;BME280_temperature;BME280_humidity;BME280_pressure;Samples;Min_cycle;Max_cycle;Signal;HPM_P1;HPM_P2
2022/08/04 00:01:52;;;;;;;;;4.00;3.00;;;;;27.79;42.00;100764.63;5015000;28;46509;-64
2022/08/04 00:04:24;;;;;;;;;2.00;2.00;;;;;27.75;42.00;100763.50;5014948;28;47077;-74
2022/08/04 00:07:13;;;;;;;;;4.00;2.00;;;;;27.77;42.31;100761.31;5016771;28;45473;-65
2022/08/04 00:09:48;;;;;;;;;4.00;4.00;;;;;27.68;42.65;100757.41;5011210;28;45232;-64
2022/08/04 00:12:15;;;;;;;;;3.33;3.33;;;;;27.69;42.69;100760.97;5015967;28;47165;-65
2022/08/04 00:14:47;;;;;;;;;2.00;2.00;;;;;27.44;43.01;100735.00;5016896;28;45198;-64
2022/08/04 00:17:14;;;;;;;;;2.33;2.33;;;;;27.41;42.89;100723.75;5017452;28;45254;-64
2022/08/04 00:19:43;;;;;;;;;1.67;1.67;;;;;27.59;42.56;100765.19;5017854;28;45436;-65
2022/08/04 00:22:12;;;;;;;;;2.00;2.00;;;;;27.57;42.77;100755.59;5016415;28;46634;-64
2022/08/04 00:24:41;;;;;;;;;4.33;3.00;;;;;27.52;42.83;100753.66;5017140;28;47012;-65
2022/08/04 00:27:08;;;;;;;;;3.00;3.00;;;;;27.46;42.59;100743.75;5016409;28;45371;-63
2022/08/04 00:29:36;;;;;;;;;3.00;3.00;;;;;27.56;42.57;100762.16;5017854;28;45505;-64
2022/08/04 00:32:02;;;;;;;;;4.67;3.00;;;;;27.51;42.68;100745.72;5016455;28;46710;-65
2022/08/04 00:34:30;;;;;;;;;2.00;2.00;;;;;27.55;42.84;100764.06;4997166;28;45261;-65
2022/08/04 00:36:57;;;;;;;;;3.00;2.67;;;;;27.17;42.48;100695.91;4998965;28;45188;-65
2022/08/04 00:39:23;;;;;;;;;2.00;2.00;;;;;27.46;42.65;100749.22;5013519;28;46704;-63
2022/08/04 00:41:54;;;;;;;;;2.00;2.00;;;;;27.49;42.94;100754.16;5017267;28;46600;-64
2022/08/04 00:44:38;;;;;;;;;1.00;1.00;;;;;27.08;42.81;100703.72;5016761;28;45380;-63
2022/08/04 00:47:30;;;;;;;;;3.67;3.00;;;;;27.25;42.87;100730.94;5016733;28;45492;-64
2022/08/04 00:50:23;;;;;;;;;3.00;2.00;;;;;27.42;42.82;100756.25;5017141;28;45344;-64
2022/08/04 00:53:23;;;;;;;;;1.67;1.67;;;;;27.44;42.78;100764.22;5007106;28;48887;-64
2022/08/04 00:55:54;;;;;;;;;5.00;4.00;;;;;27.47;42.82;100760.97;5014534;28;46426;-64
2022/08/04 00:58:45;;;;;;;;;3.00;1.33;;;;;27.41;43.02;100756.50;5016245;28;45344;-64
2022/08/04 01:01:25;;;;;;;;;2.00;2.00;;;;;27.34;42.76;100745.78;5016971;28;45265;-64
2022/08/04 01:04:09;;;;;;;;;1.00;1.00;;;;;27.46;43.14;100751.94;5022688;28;47545;-64
2022/08/04 01:06:48;;;;;;;;;2.00;2.00;;;;;27.51;43.10;100746.53;5016386;28;45326;-65
2022/08/04 01:09:16;;;;;;;;;9.00;6.33;;;;;27.54;42.93;100745.19;5012307;28;45521;-64
2022/08/04 01:12:08;;;;;;;;;2.33;2.00;;;;;27.51;42.96;100746.53;5016202;28;45478;-64
2022/08/04 01:14:51;;;;;;;;;1.00;1.00;;;;;27.50;42.36;100747.63;5015236;28;46733;-64
2022/08/04 01:17:24;;;;;;;;;3.00;3.00;;;;;27.50;42.75;100758.53;4999136;28;45306;-65
2022/08/04 01:20:09;;;;;;;;;2.67;2.67;;;;;27.52;42.77;100753.66;5014344;28;45484;-63
2022/08/04 01:22:57;;;;;;;;;6.00;3.00;;;;;27.50;43.96;100750.34;5008361;28;45614;-64
2022/08/04 01:25:40;;;;;;;;;3.33;3.33;;;;;27.52;44.08;100752.81;5015968;28;45850;-64
2022/08/04 01:28:17;;;;;;;;;3.00;3.00;;;;;27.54;43.84;100751.50;5015344;28;45515;-65
2022/08/04 01:30:48;;;;;;;;;2.33;2.33;;;;;27.55;44.21;100758.59;5013464;28;45230;-64
2022/08/04 01:33:16;;;;;;;;;4.00;3.00;;;;;27.43;44.25;100733.34;5017258;28;45651;-63
2022/08/04 01:35:48;;;;;;;;;3.67;2.67;;;;;27.55;43.91;100758.59;5015918;28;46607;-64
2022/08/04 01:38:24;;;;;;;;;2.67;2.67;;;;;27.46;44.43;100751.13;5015921;28;45604;-64
2022/08/04 01:40:56;;;;;;;;;4.33;2.00;;;;;27.49;44.06;100748.69;5013155;28;45496;-64
2022/08/04 01:43:22;;;;;;;;;3.00;3.00;;;;;27.15;44.13;100687.16;5016344;28;45416;-65
2022/08/04 01:45:50;;;;;;;;;4.00;3.00;;;;;27.47;44.29;100760.97;5016393;28;45914;-64
2022/08/04 01:48:21;;;;;;;;;4.33;2.33;;;;;27.33;44.17;100733.22;5013731;28;45498;-66
2022/08/04 01:50:48;;;;;;;;;2.00;2.00;;;;;27.46;44.31;100745.66;5009894;28;45701;-64
2022/08/04 01:53:14;;;;;;;;;2.67;2.00;;;;;27.22;45.04;100720.50;5015083;28;45654;-64
2022/08/04 01:55:40;;;;;;;;;3.67;1.00;;;;;27.34;44.36;100739.50;5002128;28;46907;-66
2022/08/04 01:58:07;;;;;;;;;3.67;2.33;;;;;27.33;44.42;100748.78;5013335;28;45534;-64
2022/08/04 02:00:32;;;;;;;;;2.00;2.00;;;;;26.94;44.81;100669.66;5007277;28;45417;-64
2022/08/04 02:02:58;;;;;;;;;3.00;3.00;;;;;27.27;44.72;100728.78;5015887;28;45571;-63
2022/08/04 02:05:25;;;;;;;;;3.33;3.33;;;;;27.25;44.86;100733.69;5014671;28;46513;-63
2022/08/04 02:08:03;;;;;;;;;3.00;3.00;;;;;27.28;44.56;100730.44;5015858;28;45496;-64
2022/08/04 02:10:34;;;;;;;;;5.00;4.00;;;;;27.22;45.16;100731.44;5011529;28;45583;-63
2022/08/04 02:13:36;;;;;;;;;2.33;2.00;;;;;27.19;45.18;100732.78;5009724;28;45154;-64
2022/08/04 02:16:20;;;;;;;;;1.67;1.67;;;;;27.03;45.23;100714.56;5015712;28;46327;-64
2022/08/04 02:19:13;;;;;;;;;1.00;1.00;;;;;27.12;45.19;100717.69;5013753;28;45307;-64
2022/08/04 02:21:39;;;;;;;;;4.50;3.00;;;;;27.23;45.28;100738.53;5014900;28;45318;-64
2022/08/04 02:24:07;;;;;;;;;2.00;2.00;;;;;27.05;45.12;100708.88;5011861;28;45302;-65
2022/08/04 02:26:34;;;;;;;;;2.33;1.67;;;;;27.17;45.53;100732.19;4996555;28;47066;-65
2022/08/04 02:29:09;;;;;;;;;4.00;3.00;;;;;26.56;45.13;100626.91;5013280;28;45652;-64
2022/08/04 02:31:47;;;;;;;;;5.33;3.67;;;;;27.15;45.13;100726.19;5015644;28;45335;-64
2022/08/04 02:34:28;;;;;;;;;4.00;2.33;;;;;26.72;45.52;100658.75;5021578;28;45558;-65
2022/08/04 02:36:55;;;;;;;;;3.00;3.00;;;;;27.00;45.69;100716.97;5030169;28;46745;-64
2022/08/04 02:39:22;;;;;;;;;3.00;3.00;;;;;26.82;45.85;100693.50;5017427;28;45683;-63
2022/08/04 02:41:48;;;;;;;;;4.00;3.00;;;;;26.82;45.73;100713.41;5019422;28;45431;-64
2022/08/04 02:44:20;;;;;;;;;2.67;2.33;;;;;26.74;46.15;100704.88;5019180;28;45476;-64
2022/08/04 02:46:49;;;;;;;;;2.00;2.00;;;;;26.73;46.35;100723.13;5012909;28;47448;-63
2022/08/04 02:49:17;;;;;;;;;4.33;4.00;;;;;26.67;46.23;100714.06;5019091;28;45472;-64
2022/08/04 02:51:46;;;;;;;;;4.00;4.00;;;;;26.60;45.71;100713.38;5008396;28;45385;-63
2022/08/04 02:54:16;;;;;;;;;2.67;2.00;;;;;26.71;45.97;100719.00;5017432;28;45625;-64
2022/08/04 02:56:44;;;;;;;;;2.67;2.00;;;;;26.70;45.98;100720.09;5017800;28;46595;-63
2022/08/04 02:59:11;;;;;;;;;3.00;3.00;;;;;26.68;46.07;100736.69;4999934;28;45306;-63
2022/08/04 03:01:38;;;;;;;;;3.00;3.00;;;;;26.63;45.96;100733.88;4993004;28;45482;-64
2022/08/04 03:04:32;;;;;;;;;3.67;3.00;;;;;26.66;45.99;100747.88;5015553;28;45555;-64
2022/08/04 03:07:22;;;;;;;;;3.00;3.00;;;;;26.66;46.13;100738.84;5015314;28;46368;-64
2022/08/04 03:10:13;;;;;;;;;2.00;2.00;;;;;26.63;46.18;100734.72;5025758;28;46352;-64
2022/08/04 03:13:00;;;;;;;;;3.00;3.00;;;;;26.69;46.68;100743.81;5017497;28;45440;-64
2022/08/04 03:16:02;;;;;;;;;4.00;2.67;;;;;26.65;46.65;100735.31;5013475;28;45558;-64
2022/08/04 03:18:33;;;;;;;;;2.67;2.67;;;;;26.71;46.65;100733.47;5012894;28;46497;-64
2022/08/04 03:21:16;;;;;;;;;3.33;3.00;;;;;26.74;46.59;100734.88;5017270;28;45313;-64
2022/08/04 03:24:06;;;;;;;;;3.00;3.00;;;;;26.66;46.83;100739.69;5013997;28;45536;-66
2022/08/04 03:26:51;;;;;;;;;3.00;3.00;;;;;26.64;46.66;100736.38;5008358;28;45231;-63
2022/08/04 03:29:22;;;;;;;;;3.00;3.00;;;;;26.62;46.79;100737.69;5009455;28;47011;-65
2022/08/04 03:31:53;;;;;;;;;4.00;3.00;;;;;26.61;46.49;100739.59;5017823;28;45616;-63
2022/08/04 03:34:58;;;;;;;;;3.00;3.00;;;;;26.64;46.78;100735.56;5016819;28;46417;-64
2022/08/04 03:37:35;;;;;;;;;3.67;3.67;;;;;26.58;47.13;100731.09;5016442;28;46902;-64
2022/08/04 03:40:32;;;;;;;;;3.33;3.33;;;;;26.55;46.84;100721.50;5016102;28;45679;-64
2022/08/04 03:43:34;;;;;;;;;6.00;4.33;;;;;26.54;47.13;100725.31;5013610;28;45453;-70
2022/08/04 03:46:31;;;;;;;;;3.33;3.33;;;;;26.53;46.84;100729.13;5016074;28;45337;-65
2022/08/04 03:49:09;;;;;;;;;4.33;4.33;;;;;26.57;46.75;100741.16;5006582;28;45547;-64
2022/08/04 03:55:38;;;;;;;;;3.00;3.00;;;;;26.54;47.35;100729.94;4975039;28;45467;-65
2022/08/04 03:58:26;;;;;;;;;4.00;3.00;;;;;26.55;47.30;100726.13;5007666;28;45398;-64
2022/08/04 04:00:51;;;;;;;;;4.00;3.33;;;;;26.58;46.99;100725.63;5015789;28;45553;-63
2022/08/04 04:03:41;;;;;;;;;4.67;4.00;;;;;26.49;47.53;100717.06;5016144;28;46552;-63
2022/08/04 04:06:40;;;;;;;;;6.67;4.33;;;;;26.44;47.54;100721.63;5015333;28;45477;-64
2022/08/04 04:09:25;;;;;;;;;5.00;4.00;;;;;25.88;47.50;100628.03;5017528;28;45622;-63
2022/08/04 04:12:02;;;;;;;;;4.67;4.67;;;;;26.24;47.58;100703.00;5002426;28;46062;-64
2022/08/04 04:15:13;;;;;;;;;4.00;3.67;;;;;26.13;48.12;100715.63;5001775;28;46648;-64
2022/08/04 04:18:03;;;;;;;;;4.00;4.00;;;;;26.13;48.10;100729.25;4970348;28;45475;-64
2022/08/04 04:20:50;;;;;;;;;5.00;4.00;;;;;26.21;47.85;100741.63;5014122;28;45662;-65
2022/08/04 04:23:41;;;;;;;;;4.00;3.00;;;;;26.25;47.34;100735.47;5013414;28;45322;-64
2022/08/04 04:26:19;;;;;;;;;7.00;6.67;;;;;26.33;47.47;100751.41;5026075;28;46404;-65
2022/08/04 04:29:15;;;;;;;;;3.67;2.33;;;;;26.39;47.17;100757.78;5020681;28;45510;-63
2022/08/04 04:31:52;;;;;;;;;5.33;4.00;;;;;26.41;47.81;100752.06;5002046;28;45502;-64
2022/08/04 04:34:34;;;;;;;;;4.67;3.33;;;;;26.34;47.33;100761.25;4998434;28;45508;-64
2022/08/04 04:37:07;;;;;;;;;3.67;2.67;;;;;26.30;47.46;100757.34;5009329;28;45805;-64
2022/08/04 04:39:54;;;;;;;;;4.67;3.00;;;;;26.27;47.27;100749.66;4999403;28;45345;-64
2022/08/04 04:42:40;;;;;;;;;4.67;4.00;;;;;26.22;47.10;100754.19;5015152;28;45495;-64
2022/08/04 04:45:22;;;;;;;;;1.00;1.00;;;;;26.18;47.45;100762.03;5017060;28;46891;-63
2022/08/04 04:47:58;;;;;;;;;5.00;3.00;;;;;26.15;47.51;100757.09;5008029;28;47394;-64
2022/08/04 04:50:54;;;;;;;;;3.00;3.00;;;;;26.16;47.37;100794.16;5014475;28;45347;-71
2022/08/04 04:53:27;;;;;;;;;6.00;6.00;;;;;25.75;48.74;100733.50;4992013;28;45546;-64
2022/08/04 04:56:05;;;;;;;;;5.67;4.33;;;;;26.11;48.91;100791.34;5014284;28;45503;-64
2022/08/04 04:58:32;;;;;;;;;5.00;5.00;;;;;26.08;49.29;100786.41;5013815;28;45547;-64
2022/08/04 05:01:15;;;;;;;;;5.67;5.33;;;;;26.04;49.33;100812.50;5010920;28;45806;-64
2022/08/04 05:04:05;;;;;;;;;4.00;4.00;;;;;25.98;49.35;100799.81;5012517;28;45600;-66
2022/08/04 05:06:51;;;;;;;;;4.00;3.00;;;;;26.00;48.94;100789.50;5006521;28;45426;-66
2022/08/04 05:09:28;;;;;;;;;5.00;4.00;;;;;26.00;49.02;100790.31;5016223;28;45368;-63
2022/08/04 05:12:31;;;;;;;;;4.00;4.00;;;;;25.93;49.08;100791.56;5015579;28;45369;-63
2022/08/04 05:14:58;;;;;;;;;4.00;4.00;;;;;25.93;49.03;100786.13;5022356;28;45243;-64
2022/08/04 05:17:31;;;;;;;;;6.00;5.00;;;;;25.92;48.94;100801.63;5017455;28;45374;-64
2022/08/04 05:20:02;;;;;;;;;3.00;3.00;;;;;25.91;48.29;100783.63;5000315;28;45227;-64
2022/08/04 05:22:36;;;;;;;;;4.00;3.67;;;;;25.72;48.22;100757.66;5016402;28;45577;-64
2022/08/04 05:25:07;;;;;;;;;3.00;3.00;;;;;25.73;48.09;100775.66;5015321;28;45529;-65
2022/08/04 05:27:40;;;;;;;;;3.33;3.33;;;;;25.80;47.93;100800.03;5014806;28;45249;-69
2022/08/04 05:30:06;;;;;;;;;4.33;3.33;;;;;25.63;48.07;100789.88;5003274;28;46482;-64
2022/08/04 05:32:43;;;;;;;;;3.67;2.67;;;;;25.78;47.80;100814.72;5015307;28;45743;-64
2022/08/04 05:35:14;;;;;;;;;4.33;4.33;;;;;25.82;47.63;100811.50;5003096;28;45381;-64
2022/08/04 05:37:42;;;;;;;;;3.00;3.00;;;;;25.77;47.61;100823.13;5003811;28;45426;-65
2022/08/04 05:40:10;;;;;;;;;2.00;2.00;;;;;25.37;47.20;100768.66;5009655;28;46620;-65
2022/08/04 05:42:38;;;;;;;;;3.00;2.33;;;;;25.68;47.50;100828.13;5013415;28;45321;-64
2022/08/04 05:45:06;;;;;;;;;3.00;3.00;;;;;25.74;47.53;100826.34;5012960;28;45451;-63
2022/08/04 05:47:32;;;;;;;;;3.00;2.67;;;;;25.66;47.45;100816.63;5005780;28;45478;-64
2022/08/04 05:50:00;;;;;;;;;4.00;4.00;;;;;25.66;47.30;100811.19;5004906;28;46226;-64
2022/08/04 05:52:26;;;;;;;;;3.33;3.33;;;;;25.48;47.42;100792.28;5009982;28;45326;-64
2022/08/04 05:54:54;;;;;;;;;4.33;2.00;;;;;25.53;47.57;100808.72;5015123;28;45279;-64
2022/08/04 05:57:20;;;;;;;;;5.67;4.67;;;;;25.63;47.20;100817.13;5016428;28;45397;-64
2022/08/04 05:59:47;;;;;;;;;4.00;4.00;;;;;25.66;46.90;100815.81;5015576;28;45523;-64
2022/08/04 06:02:16;;;;;;;;;4.00;4.00;;;;;25.74;46.91;100808.09;5003330;28;46218;-64
2022/08/04 06:04:45;;;;;;;;;4.33;3.00;;;;;25.15;47.23;100705.88;5004918;28;45550;-63
2022/08/04 06:07:12;;;;;;;;;4.67;4.67;;;;;25.53;46.92;100735.22;5007857;28;45551;-66
2022/08/04 06:09:39;;;;;;;;;3.00;3.00;;;;;26.16;46.74;100798.78;5012177;28;46991;-62
2022/08/04 06:12:19;;;;;;;;;4.67;4.67;;;;;26.28;46.42;100791.38;5018550;28;45371;-66
2022/08/04 06:14:49;;;;;;;;;5.33;4.33;;;;;26.52;45.88;100802.97;5018366;28;45244;-63
2022/08/04 06:17:29;;;;;;;;;3.00;3.00;;;;;26.75;45.33;100801.97;5019623;28;45429;-64
2022/08/04 06:19:56;;;;;;;;;6.33;5.33;;;;;26.94;44.97;100803.34;5002606;28;46860;-65
2022/08/04 06:22:23;;;;;;;;;5.67;5.33;;;;;27.22;44.46;100807.84;4999157;28;46483;-64
2022/08/04 06:24:51;;;;;;;;;4.33;3.33;;;;;27.48;43.96;100800.84;4999886;28;45481;-64
2022/08/04 06:27:17;;;;;;;;;4.33;4.00;;;;;27.81;42.53;100810.81;4982149;28;45427;-64
2022/08/04 06:29:44;;;;;;;;;8.33;5.00;;;;;27.83;42.40;100800.44;4987093;28;48501;-64
2022/08/04 06:32:46;;;;;;;;;3.00;3.00;;;;;27.81;42.51;100810.81;5006460;28;45569;-64
2022/08/04 06:35:06;;;;;;;;;6.00;6.00;;;;;27.40;42.34;100744.75;5017185;28;45487;-63
2022/08/04 06:37:36;;;;;;;;;4.67;4.67;;;;;27.76;42.46;100816.22;5019399;28;45476;-63
2022/08/04 06:40:03;;;;;;;;;3.33;3.33;;;;;27.76;42.13;100810.75;5017541;28;47493;-64
2022/08/04 06:42:30;;;;;;;;;5.00;5.00;;;;;27.51;42.35;100749.28;5018341;28;45258;-64
2022/08/04 06:44:57;;;;;;;;;6.00;4.00;;;;;28.10;41.50;100803.19;5001607;28;45315;-63
2022/08/04 06:47:24;;;;;;;;;5.67;4.00;;;;;28.60;40.56;100818.41;5017852;28;45323;-64
2022/08/04 06:49:51;;;;;;;;;6.33;3.67;;;;;28.30;40.21;100747.91;5006673;28;47578;-64
2022/08/04 06:52:18;;;;;;;;;5.00;4.33;;;;;28.73;40.10;100818.81;5011004;28;45642;-64
2022/08/04 06:54:48;;;;;;;;;5.33;3.00;;;;;28.74;39.85;100830.56;4994205;28;45523;-66
2022/08/04 06:57:17;;;;;;;;;4.00;3.33;;;;;28.73;39.85;100829.75;5015606;28;45568;-64
2022/08/04 06:59:48;;;;;;;;;3.33;3.33;;;;;28.68;39.77;100832.47;5015003;28;46531;-64
2022/08/04 07:02:19;;;;;;;;;5.00;4.00;;;;;28.59;40.02;100834.00;5011174;28;45548;-64
2022/08/04 07:04:46;;;;;;;;;4.33;2.33;;;;;28.50;40.31;100832.84;4981268;28;45237;-66
2022/08/04 07:07:13;;;;;;;;;4.00;4.00;;;;;28.04;40.61;100775.00;5013892;28;45487;-63
2022/08/04 07:09:39;;;;;;;;;5.00;3.33;;;;;28.46;40.00;100826.25;5017890;28;46863;-65
2022/08/04 07:12:06;;;;;;;;;3.00;3.00;;;;;28.35;40.33;100788.97;5024537;28;45452;-64
2022/08/04 07:14:34;;;;;;;;;7.00;3.00;;;;;29.15;39.31;100841.81;5018725;28;45348;-64
2022/08/04 07:17:02;;;;;;;;;5.00;4.00;;;;;29.73;37.73;100849.00;5018279;28;45238;-64
2022/08/04 07:19:28;;;;;;;;;2.33;2.33;;;;;30.32;37.54;100843.13;5017124;28;47599;-62
2022/08/04 07:21:53;;;;;;;;;5.00;4.00;;;;;31.20;35.85;100844.75;5013589;28;45527;-64
2022/08/04 07:24:19;;;;;;;;;5.00;3.67;;;;;31.84;34.53;100849.47;5016580;28;45410;-64
2022/08/04 07:26:49;;;;;;;;;3.33;3.33;;;;;32.18;33.64;100800.84;5000109;28;45607;-66
2022/08/04 07:29:15;;;;;;;;;3.33;2.33;;;;;33.01;31.70;100852.22;5003215;28;46245;-63
2022/08/04 07:31:40;;;;;;;;;5.67;3.00;;;;;33.28;31.63;100862.69;5016795;28;45773;-64
2022/08/04 07:34:07;;;;;;;;;2.00;1.67;;;;;32.91;31.64;100842.13;5016649;28;45517;-64
2022/08/04 07:36:32;;;;;;;;;3.00;2.00;;;;;32.16;32.59;100847.09;5012827;28;45631;-64
2022/08/04 07:38:58;;;;;;;;;5.00;5.00;;;;;31.80;33.24;100856.66;5017564;28;45610;-67
2022/08/04 07:41:24;;;;;;;;;5.00;2.67;;;;;31.42;33.82;100842.47;5014380;28;45520;-64
2022/08/04 07:43:50;;;;;;;;;5.33;4.00;;;;;31.08;34.57;100854.09;4997884;28;45457;-70
2022/08/04 07:46:15;;;;;;;;;4.00;4.00;;;;;30.93;35.01;100873.34;5008303;28;46020;-64
2022/08/04 07:48:41;;;;;;;;;2.33;2.33;;;;;30.65;35.99;100868.44;4998814;28;45753;-66
2022/08/04 07:51:07;;;;;;;;;3.33;2.33;;;;;30.44;36.13;100853.84;5009451;28;45474;-64
2022/08/04 07:53:34;;;;;;;;;4.00;3.00;;;;;30.28;36.41;100866.72;5017642;28;46456;-64
2022/08/04 07:56:01;;;;;;;;;3.33;2.00;;;;;30.14;37.10;100882.03;5011431;28;45381;-63
2022/08/04 07:58:27;;;;;;;;;2.00;1.00;;;;;29.68;37.85;100827.88;5016063;28;45653;-64
2022/08/04 08:00:53;;;;;;;;;5.67;4.00;;;;;29.84;38.96;100866.31;5015346;28;45498;-65
2022/08/04 08:03:19;;;;;;;;;4.67;3.33;;;;;29.56;38.02;100882.06;5008003;28;45645;-64
2022/08/04 08:05:45;;;;;;;;;5.67;5.00;;;;;29.44;38.77;100892.41;5015860;28;45412;-65
2022/08/04 08:08:10;;;;;;;;;7.00;5.67;;;;;29.26;40.07;100899.13;5015283;28;46643;-64
2022/08/04 08:10:37;;;;;;;;;5.00;3.67;;;;;29.02;40.17;100895.13;5013982;28;45521;-65
2022/08/04 08:13:03;;;;;;;;;4.00;2.00;;;;;28.65;41.03;100898.63;5014975;28;45536;-64
2022/08/04 08:15:29;;;;;;;;;0.33;0.33;;;;;28.52;41.25;100896.31;5014554;28;45563;-63
2022/08/04 08:17:55;;;;;;;;;4.33;4.33;;;;;28.38;40.95;100884.97;5013065;28;46652;-63
2022/08/04 08:20:20;;;;;;;;;7.33;3.67;;;;;28.37;42.04;100901.63;5014646;28;45740;-63
2022/08/04 08:22:46;;;;;;;;;4.00;4.00;;;;;28.37;42.81;100918.03;4997993;28;45484;-69
2022/08/04 08:25:11;;;;;;;;;5.00;5.00;;;;;28.32;43.42;100921.56;5010875;28;45434;-63
2022/08/04 08:27:37;;;;;;;;;3.67;3.00;;;;;28.29;43.00;100910.31;5017113;28;45688;-65
2022/08/04 08:30:04;;;;;;;;;5.00;4.33;;;;;28.16;43.37;100906.84;5016939;28;45518;-65
2022/08/04 08:32:29;;;;;;;;;6.00;3.00;;;;;28.08;43.03;100899.13;5012959;28;45476;-64
2022/08/04 08:34:55;;;;;;;;;7.33;3.67;;;;;27.95;42.91;100899.50;5008265;28;45436;-64
2022/08/04 08:37:55;;;;;;;;;5.00;5.00;;;;;27.91;44.26;100903.84;5014534;28;45763;-64
2022/08/04 08:40:30;;;;;;;;;4.67;3.00;;;;;27.91;44.17;100914.78;4990446;28;45688;-66
2022/08/04 08:43:35;;;;;;;;;6.67;4.00;;;;;27.94;44.75;100907.97;5012137;28;45491;-64
2022/08/04 08:46:31;;;;;;;;;4.00;3.00;;;;;27.95;44.58;100926.84;4980086;28;45382;-70
2022/08/04 08:49:24;;;;;;;;;2.67;2.67;;;;;27.94;43.84;100924.34;5007288;28;45947;-64
2022/08/04 08:52:20;;;;;;;;;6.33;5.33;;;;;27.86;44.34;100907.34;5016307;28;45555;-64
2022/08/04 08:55:16;;;;;;;;;5.00;5.00;;;;;27.72;44.96;100919.72;5000365;28;45457;-65
2022/08/04 08:57:54;;;;;;;;;4.67;3.33;;;;;27.72;45.22;100911.53;5016307;28;45219;-65
2022/08/04 09:00:41;;;;;;;;;2.00;2.00;;;;;27.71;45.24;100898.13;5016474;28;46362;-65
2022/08/04 09:03:26;;;;;;;;;4.00;4.00;;;;;27.74;45.48;100903.91;5014589;28;45757;-64
2022/08/04 09:06:36;;;;;;;;;3.67;3.67;;;;;27.79;45.33;100895.75;5014339;28;45324;-63
2022/08/04 09:09:20;;;;;;;;;3.00;3.00;;;;;27.88;45.07;100901.63;5007723;28;45591;-64
2022/08/04 09:12:23;;;;;;;;;3.67;3.00;;;;;27.92;44.76;100910.13;5008883;28;47381;-65
2022/08/04 09:14:51;;;;;;;;;4.00;2.00;;;;;27.97;44.75;100916.47;5009569;28;45549;-68
2022/08/04 09:17:27;;;;;;;;;5.00;3.67;;;;;27.58;44.49;100829.09;5016699;28;45356;-66
2022/08/04 09:20:04;;;;;;;;;3.00;3.00;;;;;28.21;44.12;100919.75;5014500;28;45416;-64
2022/08/04 09:22:57;;;;;;;;;4.67;3.33;;;;;28.30;43.87;100934.66;5016592;28;47035;-65
2022/08/04 09:25:33;;;;;;;;;5.67;4.00;;;;;28.60;43.45;100939.59;5015543;28;45579;-65
2022/08/04 09:28:04;;;;;;;;;6.00;4.67;;;;;29.01;42.79;100923.56;5015469;28;45504;-65
2022/08/04 09:30:42;;;;;;;;;3.00;3.00;;;;;29.60;41.67;100937.97;5016146;28;45444;-67
2022/08/04 09:33:16;;;;;;;;;4.00;3.00;;;;;29.90;40.42;100940.06;5015452;28;47788;-66
2022/08/04 09:35:41;;;;;;;;;3.67;2.67;;;;;30.27;40.25;100928.97;5015922;28;45244;-65
2022/08/04 09:38:34;;;;;;;;;5.00;3.00;;;;;30.61;39.19;100913.94;5015393;28;45386;-66
2022/08/04 09:41:30;;;;;;;;;4.00;3.33;;;;;30.98;38.58;100924.69;5016294;28;45539;-66
2022/08/04 09:44:37;;;;;;;;;2.67;2.00;;;;;31.02;38.33;100934.81;4998530;28;47779;-65
2022/08/04 09:47:12;;;;;;;;;3.00;3.00;;;;;31.26;38.10;100934.31;5019376;28;45314;-64
2022/08/04 09:49:49;;;;;;;;;2.00;2.00;;;;;31.39;37.44;100898.00;5020085;28;45292;-64
2022/08/04 09:52:36;;;;;;;;;3.33;3.00;;;;;32.05;36.46;100939.03;5019272;28;45509;-64
2022/08/04 09:55:12;;;;;;;;;3.00;2.67;;;;;32.42;35.44;100930.31;5019166;28;46392;-63
2022/08/04 09:57:49;;;;;;;;;5.00;3.33;;;;;32.46;35.97;100939.66;5018398;28;45570;-65
2022/08/04 10:00:16;;;;;;;;;3.00;1.67;;;;;32.42;35.69;100935.00;5019552;28;45575;-65
2022/08/04 10:02:54;;;;;;;;;2.67;2.00;;;;;32.28;35.70;100930.16;5020190;28;45471;-64
2022/08/04 10:05:52;;;;;;;;;2.00;2.00;;;;;31.81;36.31;100903.09;5018977;28;46696;-64
2022/08/04 10:08:45;;;;;;;;;4.00;4.00;;;;;31.80;36.73;100922.63;5019617;28;45382;-65
2022/08/04 10:11:22;;;;;;;;;6.00;3.00;;;;;31.35;37.03;100908.72;5019543;28;45400;-65
2022/08/04 10:13:57;;;;;;;;;5.00;3.33;;;;;30.78;37.82;100867.84;5019692;28;45373;-64
2022/08/04 10:16:28;;;;;;;;;4.00;4.00;;;;;30.92;38.20;100923.88;5018377;28;46543;-66
2022/08/04 10:19:18;;;;;;;;;3.00;2.67;;;;;30.55;39.14;100927.66;5019106;28;45484;-62
2022/08/04 10:22:06;;;;;;;;;3.00;3.00;;;;;30.38;39.72;100929.81;5019337;28;45584;-65
2022/08/04 10:24:46;;;;;;;;;3.00;2.00;;;;;30.27;39.81;100933.63;5019676;28;45504;-65
2022/08/04 10:27:24;;;;;;;;;1.67;1.67;;;;;30.18;40.16;100932.50;5016946;28;47576;-63
2022/08/04 10:29:53;;;;;;;;;3.67;2.00;;;;;30.31;40.44;100942.97;4985297;28;46123;-65
2022/08/04 10:32:41;;;;;;;;;3.00;1.33;;;;;30.42;40.21;100939.13;5019591;28;45152;-65
2022/08/04 10:35:09;;;;;;;;;1.00;1.00;;;;;30.65;40.01;100921.41;5003521;28;45373;-65
2022/08/04 10:37:53;;;;;;;;;2.00;2.00;;;;;30.82;39.56;100926.59;5019013;28;45831;-65
2022/08/04 10:40:45;;;;;;;;;2.00;2.00;;;;;30.90;39.12;100928.81;5019185;28;45473;-65
2022/08/04 10:43:26;;;;;;;;;2.00;2.00;;;;;30.97;38.91;100918.38;5019308;28;45457;-65
2022/08/04 10:46:00;;;;;;;;;5.00;2.67;;;;;31.06;38.59;100908.50;5018610;28;45393;-65
2022/08/04 10:48:40;;;;;;;;;5.67;4.00;;;;;30.93;38.61;100895.31;5018721;28;45672;-64
2022/08/04 10:51:33;;;;;;;;;4.00;2.00;;;;;30.91;38.25;100908.50;5016563;28;45719;-65
2022/08/04 10:54:04;;;;;;;;;3.00;3.00;;;;;30.99;38.53;100899.69;5018151;28;45226;-65
2022/08/04 10:56:52;;;;;;;;;4.00;2.33;;;;;30.84;38.83;100894.22;5014068;28;47156;-67
2022/08/04 10:59:37;;;;;;;;;4.00;4.00;;;;;31.02;38.83;100893.63;5017120;28;46184;-66
2022/08/04 11:02:40;;;;;;;;;4.00;3.67;;;;;30.26;38.58;100816.78;5017499;28;45156;-66
2022/08/04 11:05:11;;;;;;;;;2.33;2.33;;;;;30.36;39.71;100896.34;5018688;28;45593;-68
2022/08/04 11:07:39;;;;;;;;;5.33;4.33;;;;;30.28;40.09;100910.59;5000720;28;45589;-69
2022/08/04 11:10:06;;;;;;;;;4.00;4.00;;;;;30.15;40.45;100883.69;5016888;28;45583;-71
2022/08/04 11:12:34;;;;;;;;;3.00;2.33;;;;;29.51;40.01;100777.94;5014695;28;46655;-69
2022/08/04 11:15:12;;;;;;;;;3.00;3.00;;;;;30.26;40.04;100915.53;5017863;28;45412;-68
2022/08/04 11:17:41;;;;;;;;;2.67;2.00;;;;;30.17;40.30;100908.91;5011486;28;45409;-66
2022/08/04 11:20:27;;;;;;;;;6.33;5.00;;;;;30.06;40.16;100912.72;5006534;28;45546;-67
2022/08/04 11:23:07;;;;;;;;;7.00;7.00;;;;;29.94;40.63;100916.50;5007770;28;45346;-65
2022/08/04 11:25:57;;;;;;;;;2.33;2.00;;;;;29.93;40.87;100901.13;4999445;28;45624;-66
2022/08/04 11:28:46;;;;;;;;;11.00;11.00;;;;;29.80;41.05;100915.31;5015309;28;45683;-66
2022/08/04 11:31:18;;;;;;;;;3.00;3.00;;;;;29.11;40.72;100836.06;5017438;28;47636;-68
2022/08/04 11:34:12;;;;;;;;;3.00;3.00;;;;;29.34;41.30;100920.53;5007409;28;45507;-66
2022/08/04 11:36:47;;;;;;;;;5.33;5.33;;;;;29.23;41.48;100916.06;5006119;28;47078;-66
2022/08/04 11:39:29;;;;;;;;;3.67;2.67;;;;;29.18;42.34;100918.78;4999178;28;45565;-68
2022/08/04 11:42:13;;;;;;;;;2.33;2.33;;;;;29.07;42.13;100906.13;5011180;28;46521;-67
2022/08/04 11:45:03;;;;;;;;;4.00;4.00;;;;;29.15;42.33;100921.22;5014792;28;45405;-67
2022/08/04 11:47:37;;;;;;;;;4.67;4.67;;;;;29.19;42.32;100914.94;5017670;28;45262;-68
2022/08/04 11:50:07;;;;;;;;;3.67;3.00;;;;;29.26;42.11;100921.03;5017792;28;45677;-68
2022/08/04 11:52:34;;;;;;;;;5.67;5.33;;;;;29.27;41.96;100900.78;4999901;28;46858;-68
2022/08/04 11:55:04;;;;;;;;;5.00;3.67;;;;;29.30;41.71;100908.47;5017864;28;45370;-67
2022/08/04 11:57:30;;;;;;;;;6.00;5.00;;;;;29.53;41.92;100925.63;5008498;28;45579;-67
2022/08/04 11:59:58;;;;;;;;;6.00;6.00;;;;;29.55;41.97;100907.81;5016567;28;45321;-68
2022/08/04 12:02:36;;;;;;;;;8.00;7.33;;;;;29.62;41.26;100924.00;5017735;28;46741;-67
2022/08/04 12:05:04;;;;;;;;;6.33;6.33;;;;;29.55;41.58;100912.47;5016414;28;45356;-65
2022/08/04 12:07:59;;;;;;;;;6.67;6.67;;;;;29.75;41.26;100923.53;5017246;28;45489;-66
2022/08/04 12:10:53;;;;;;;;;4.33;4.33;;;;;29.86;40.94;100914.28;5018045;28;45488;-66